createdAt,value
2019-06-15T00:00:11.168Z,80.90
2019-06-15T00:02:39.772Z,81.30
2019-06-15T00:05:08.815Z,81.10
2019-06-15T00:07:38.637Z,82.80
2019-06-15T00:10:07.737Z,83.60
2019-06-15T00:12:36.564Z,83.60
2019-06-15T00:15:06.783Z,81.60
2019-06-15T00:17:35.908Z,80.70
2019-06-15T00:20:06.042Z,79.90
2019-06-15T00:22:34.839Z,79.20
2019-06-15T00:25:04.184Z,79.40
2019-06-15T00:27:33.044Z,80.80
2019-06-15T00:30:01.824Z,82.30
2019-06-15T00:32:30.472Z,83.50
2019-06-15T00:34:59.427Z,84.70
2019-06-15T00:37:28.513Z,83.80
2019-06-15T00:39:57.537Z,81.60
2019-06-15T00:42:26.307Z,80.20
2019-06-15T00:44:55.027Z,79.30
2019-06-15T00:47:24.035Z,79.60
2019-06-15T00:49:52.759Z,80.30
2019-06-15T00:52:21.511Z,81.80
2019-06-15T00:54:50.872Z,80.40
2019-06-15T00:57:19.985Z,80.80
2019-06-15T00:59:48.979Z,79.60
2019-06-15T01:02:17.672Z,78.80
2019-06-15T01:04:46.392Z,78.10
2019-06-15T01:07:15.523Z,77.80
2019-06-15T01:09:44.391Z,77.40
2019-06-15T01:12:13.250Z,77.60
2019-06-15T01:14:42.302Z,78.50
2019-06-15T01:17:11.136Z,77.60
2019-06-15T01:19:40.062Z,77.10
2019-06-15T01:22:08.816Z,77.00
2019-06-15T01:24:37.573Z,76.60
2019-06-15T01:27:06.569Z,76.60
2019-06-15T01:29:37.554Z,76.40
2019-06-15T01:32:07.669Z,76.80
2019-06-15T01:34:36.370Z,77.30
2019-06-15T01:37:05.300Z,77.10
2019-06-15T01:39:34.174Z,76.40
2019-06-15T01:42:04.056Z,76.30
2019-06-15T01:44:34.929Z,76.40
2019-06-15T01:47:03.936Z,77.50
2019-06-15T01:49:32.885Z,77.70
2019-06-15T01:52:03.232Z,78.60
2019-06-15T01:54:32.176Z,77.70
2019-06-15T01:57:03.709Z,77.70
2019-06-15T01:59:32.468Z,77.70
2019-06-15T02:02:01.240Z,78.60
2019-06-15T02:04:30.488Z,78.30
2019-06-15T02:06:59.419Z,78.50
2019-06-15T02:09:28.673Z,80.50
2019-06-15T02:11:59.551Z,79.60
2019-06-15T02:14:28.673Z,79.30
2019-06-15T02:16:57.370Z,79.70
2019-06-15T02:19:26.299Z,78.80
2019-06-15T02:21:57.737Z,78.50
2019-06-15T02:24:26.669Z,78.00
2019-06-15T02:26:57.877Z,78.20
2019-06-15T02:29:26.803Z,79.00
2019-06-15T02:31:55.558Z,82.10
2019-06-15T02:34:26.369Z,82.50
2019-06-15T02:36:55.222Z,82.80
2019-06-15T02:39:24.241Z,82.50
2019-06-15T02:41:55.084Z,82.30
2019-06-15T02:44:24.027Z,80.90
2019-06-15T02:46:52.804Z,80.50
2019-06-15T02:49:22.416Z,80.00
2019-06-15T02:51:53.235Z,79.40
2019-06-15T02:54:22.104Z,80.30
2019-06-15T02:56:51.662Z,78.90
2019-06-15T02:59:23.163Z,78.60
2019-06-15T03:01:52.067Z,78.70
2019-06-15T03:04:20.733Z,78.50
2019-06-15T03:06:49.519Z,78.10
2019-06-15T03:09:18.702Z,78.30
2019-06-15T03:11:47.401Z,78.50
2019-06-15T03:14:19.428Z,78.60
2019-06-15T03:16:48.152Z,79.00
2019-06-15T03:19:17.160Z,79.40
2019-06-15T03:21:46.048Z,77.80
2019-06-15T03:24:15.165Z,78.60
2019-06-15T03:26:43.964Z,77.80
2019-06-15T03:29:12.774Z,77.70
2019-06-15T03:31:45.235Z,78.20
2019-06-15T03:34:16.076Z,79.00
2019-06-15T03:36:47.492Z,80.00
2019-06-15T03:39:16.144Z,79.40
2019-06-15T03:41:44.964Z,80.30
2019-06-15T03:44:13.886Z,80.90
2019-06-15T03:46:43.020Z,80.80
2019-06-15T03:49:13.200Z,81.00
2019-06-15T03:51:42.145Z,81.10
2019-06-15T03:54:11.249Z,80.10
2019-06-15T03:56:40.457Z,80.00
2019-06-15T03:59:09.193Z,80.50
2019-06-15T04:01:43.637Z,80.50
2019-06-15T04:04:12.650Z,81.80
2019-06-15T04:06:41.337Z,84.20
2019-06-15T04:09:11.222Z,83.50
2019-06-15T04:11:40.093Z,84.10
2019-06-15T04:14:12.137Z,85.00
2019-06-15T04:16:41.104Z,83.50
2019-06-15T04:19:11.868Z,83.10
2019-06-15T04:21:40.842Z,83.10
2019-06-15T04:24:09.523Z,81.30
2019-06-15T04:26:38.725Z,80.60
2019-06-15T04:29:07.527Z,81.20
2019-06-15T04:31:39.223Z,80.50
2019-06-15T04:34:07.025Z,80.80
2019-06-15T04:36:35.752Z,82.30
2019-06-15T04:39:06.516Z,82.30
2019-06-15T04:41:35.277Z,82.00
2019-06-15T04:44:04.386Z,81.50
2019-06-15T04:46:33.134Z,81.10
2019-06-15T04:49:03.362Z,80.20
2019-06-15T04:51:32.058Z,80.10
2019-06-15T04:54:02.533Z,80.10
2019-06-15T04:56:31.530Z,79.70
2019-06-15T04:59:00.312Z,80.70
2019-06-15T05:01:29.143Z,79.30
2019-06-15T05:03:58.008Z,79.20
2019-06-15T05:06:26.870Z,78.40
2019-06-15T05:08:56.840Z,77.70
2019-06-15T05:11:25.919Z,77.50
2019-06-15T05:13:54.838Z,77.10
2019-06-15T05:16:23.713Z,76.60
2019-06-15T05:18:55.202Z,76.50
2019-06-15T05:21:25.099Z,76.40
2019-06-15T05:23:53.844Z,76.70
2019-06-15T05:26:24.079Z,76.10
2019-06-15T05:28:52.893Z,76.50
2019-06-15T05:31:22.180Z,75.90
2019-06-15T05:33:51.426Z,75.70
2019-06-15T05:36:20.228Z,75.20
2019-06-15T05:38:49.313Z,75.30
2019-06-15T05:41:18.792Z,75.40
2019-06-15T05:43:47.591Z,75.50
2019-06-15T05:46:17.077Z,75.80
2019-06-15T05:48:46.031Z,75.70
2019-06-15T05:51:15.000Z,75.70
2019-06-15T05:53:43.883Z,75.80
2019-06-15T05:56:12.638Z,75.30
2019-06-15T05:58:41.664Z,74.30
2019-06-15T06:01:10.414Z,73.80
2019-06-15T06:03:40.370Z,72.80
2019-06-15T06:06:09.423Z,73.20
2019-06-15T06:08:38.419Z,72.80
2019-06-15T06:11:07.211Z,72.10
2019-06-15T06:13:36.276Z,71.10
2019-06-15T06:16:05.629Z,70.90
2019-06-15T06:18:34.602Z,70.00
2019-06-15T06:21:03.297Z,70.20
2019-06-15T06:23:32.206Z,71.00
2019-06-15T06:26:01.167Z,69.70
2019-06-15T06:28:30.312Z,68.60
2019-06-15T06:30:59.308Z,67.50
2019-06-15T06:33:28.102Z,66.10
2019-06-15T06:35:57.157Z,66.60
2019-06-15T06:38:25.775Z,65.50
2019-06-15T06:40:55.092Z,64.30
2019-06-15T06:43:24.069Z,62.90
2019-06-15T06:45:52.799Z,62.90
2019-06-15T06:48:24.830Z,69.90
2019-06-15T06:50:53.920Z,65.60
2019-06-15T06:53:22.713Z,64.70
2019-06-15T06:55:51.659Z,64.10
2019-06-15T06:58:20.678Z,63.70
2019-06-15T07:00:49.528Z,65.00
2019-06-15T07:03:18.402Z,65.40
2019-06-15T07:05:47.610Z,65.30
2019-06-15T07:08:16.646Z,65.20
2019-06-15T07:10:45.445Z,64.70
2019-06-15T07:13:14.469Z,65.70
2019-06-15T07:15:43.581Z,66.00
2019-06-15T07:18:16.757Z,65.00
2019-06-15T07:20:45.631Z,67.50
2019-06-15T07:23:14.718Z,69.30
2019-06-15T07:25:43.443Z,69.50
2019-06-15T07:28:12.228Z,70.30
2019-06-15T07:30:41.131Z,67.00
2019-06-15T07:33:10.105Z,64.80
2019-06-15T07:35:38.874Z,64.60
2019-06-15T07:38:07.760Z,60.40
2019-06-15T07:40:36.705Z,58.80
2019-06-15T07:43:07.138Z,58.00
2019-06-15T07:45:36.036Z,58.00
2019-06-15T07:48:05.260Z,57.60
2019-06-15T07:50:34.281Z,58.50
2019-06-15T07:53:03.054Z,59.70
2019-06-15T07:55:32.122Z,60.50
2019-06-15T07:58:01.060Z,61.00
2019-06-15T08:00:32.807Z,62.50
2019-06-15T08:03:01.831Z,61.60
2019-06-15T08:05:30.705Z,64.00
2019-06-15T08:07:59.806Z,65.40
2019-06-15T08:10:28.857Z,63.50
2019-06-15T08:12:57.629Z,63.20
2019-06-15T08:15:26.375Z,60.40
2019-06-15T08:17:56.719Z,60.70
2019-06-15T08:20:33.312Z,61.50
2019-06-15T08:23:02.273Z,61.00
2019-06-15T08:25:31.639Z,61.60
2019-06-15T08:28:01.637Z,60.30
2019-06-15T08:30:36.483Z,58.00
2019-06-15T08:33:05.249Z,59.60
2019-06-15T08:35:39.081Z,60.30
2019-06-15T08:38:08.091Z,60.80
2019-06-15T08:40:37.906Z,60.30
2019-06-15T08:43:06.907Z,59.80
2019-06-15T08:45:35.787Z,59.90
2019-06-15T08:48:05.466Z,59.60
2019-06-15T08:50:34.982Z,60.10
2019-06-15T08:53:04.110Z,58.30
2019-06-15T08:55:33.055Z,59.60
2019-06-15T08:58:02.158Z,57.60
2019-06-15T09:00:33.303Z,56.80
2019-06-15T09:03:02.395Z,56.40
2019-06-15T09:05:31.371Z,55.20
2019-06-15T09:08:01.205Z,55.60
2019-06-15T09:10:30.257Z,54.90
2019-06-15T09:13:00.571Z,55.80
2019-06-15T09:15:35.527Z,56.20
2019-06-15T09:18:04.490Z,56.70
2019-06-15T09:20:37.365Z,56.40
2019-06-15T09:23:06.243Z,56.80
2019-06-15T09:25:36.883Z,56.50
2019-06-15T09:28:06.032Z,56.40
2019-06-15T09:30:35.056Z,55.10
2019-06-15T09:33:03.912Z,54.10
2019-06-15T09:35:34.227Z,54.80
2019-06-15T09:38:07.590Z,54.80
2019-06-15T09:40:36.381Z,53.70
2019-06-15T09:43:05.547Z,53.80
2019-06-15T09:45:36.989Z,54.00
2019-06-15T09:48:06.020Z,54.60
2019-06-15T09:50:34.978Z,53.70
2019-06-15T09:53:03.945Z,52.60
2019-06-15T09:55:32.883Z,52.50
2019-06-15T09:58:02.122Z,54.20
2019-06-15T10:00:31.137Z,55.60
2019-06-15T10:03:01.054Z,54.30
2019-06-15T10:05:30.457Z,54.10
2019-06-15T10:07:59.457Z,52.90
2019-06-15T10:10:28.227Z,52.00
2019-06-15T10:12:57.345Z,52.50
2019-06-15T10:15:26.618Z,54.10
2019-06-15T10:17:58.923Z,57.40
2019-06-15T10:20:29.348Z,58.00
2019-06-15T10:22:58.098Z,59.40
2019-06-15T10:25:26.815Z,58.90
2019-06-15T10:27:55.781Z,57.90
2019-06-15T10:30:24.524Z,57.40
2019-06-15T10:32:54.804Z,58.50
2019-06-15T10:35:24.215Z,58.40
2019-06-15T10:37:53.029Z,57.70
2019-06-15T10:40:22.200Z,57.80
2019-06-15T10:42:51.158Z,57.90
2019-06-15T10:45:23.312Z,57.60
2019-06-15T10:47:52.048Z,58.10
2019-06-15T10:50:22.579Z,59.20
2019-06-15T10:52:52.562Z,58.30
2019-06-15T10:55:21.671Z,59.10
2019-06-15T10:57:51.284Z,59.40
2019-06-15T11:00:20.861Z,58.90
2019-06-15T11:02:49.951Z,59.20
2019-06-15T11:05:20.464Z,59.10
2019-06-15T11:07:49.667Z,57.70
2019-06-15T11:10:24.412Z,59.70
2019-06-15T11:12:53.624Z,60.60
2019-06-15T11:15:22.564Z,64.90
2019-06-15T11:17:52.215Z,63.50
2019-06-15T11:20:21.508Z,61.10
2019-06-15T11:22:52.821Z,60.30
2019-06-15T11:25:21.655Z,60.50
2019-06-15T11:27:51.171Z,59.80
2019-06-15T11:30:20.283Z,59.00
2019-06-15T11:32:49.136Z,58.50
2019-06-15T11:35:18.249Z,57.20
2019-06-15T11:37:49.513Z,55.10
2019-06-15T11:40:18.332Z,55.30
2019-06-15T11:42:49.714Z,53.40
2019-06-15T11:45:18.952Z,54.10
2019-06-15T11:47:48.159Z,52.50
2019-06-15T11:50:17.094Z,51.70
2019-06-15T11:52:47.301Z,52.20
2019-06-15T11:55:19.719Z,52.90
2019-06-15T11:57:47.053Z,50.80
2019-06-15T12:00:30.829Z,51.70
2019-06-15T12:02:47.931Z,52.50
2019-06-15T12:05:17.192Z,50.60
2019-06-15T12:07:46.418Z,50.40
2019-06-15T12:10:15.229Z,46.50
2019-06-15T12:12:45.025Z,45.70
2019-06-15T12:15:16.425Z,46.40
2019-06-15T12:17:45.289Z,46.30
2019-06-15T12:20:14.229Z,45.90
2019-06-15T12:22:43.058Z,45.20
2019-06-15T12:25:13.374Z,44.10
2019-06-15T12:27:43.936Z,44.60
2019-06-15T12:30:14.144Z,45.00
2019-06-15T12:32:43.018Z,45.40
2019-06-15T12:35:18.090Z,45.80
2019-06-15T12:37:49.883Z,42.40
2019-06-15T12:40:18.905Z,41.60
2019-06-15T12:42:47.918Z,41.20
2019-06-15T12:45:16.776Z,41.50
2019-06-15T12:47:45.899Z,41.00
2019-06-15T12:50:15.156Z,40.60
2019-06-15T12:52:44.187Z,39.90
2019-06-15T12:55:13.292Z,39.90
2019-06-15T12:57:43.739Z,40.40
2019-06-15T13:00:14.258Z,40.60
2019-06-15T13:02:45.547Z,40.90
2019-06-15T13:05:17.852Z,40.50
2019-06-15T13:07:48.246Z,41.70
2019-06-15T13:10:19.111Z,40.40
2019-06-15T13:12:49.956Z,40.40
2019-06-15T13:15:19.128Z,40.90
2019-06-15T13:17:47.873Z,40.80
2019-06-15T13:20:17.030Z,40.70
2019-06-15T13:22:46.071Z,42.20
2019-06-15T13:25:15.638Z,41.40
2019-06-15T13:27:47.688Z,40.80
2019-06-15T13:30:24.897Z,39.00
2019-06-15T13:32:54.143Z,39.90
2019-06-15T13:35:46.405Z,40.10
2019-06-15T13:41:15.629Z,39.60
2019-06-15T13:43:55.214Z,40.40
2019-06-15T13:46:25.607Z,40.20
2019-06-15T13:49:02.615Z,41.20
2019-06-15T13:51:40.821Z,41.10
2019-06-15T13:54:18.894Z,40.70
2019-06-15T13:56:53.235Z,40.20
2019-06-15T13:59:34.085Z,41.30
2019-06-15T14:02:19.053Z,40.10
2019-06-15T14:04:54.599Z,41.00
2019-06-15T14:10:31.079Z,41.30
2019-06-15T14:13:04.315Z,40.60
2019-06-15T14:15:45.426Z,40.60
2019-06-15T14:18:22.209Z,41.20
2019-06-15T14:20:58.848Z,40.60
2019-06-15T14:23:38.039Z,39.40
2019-06-15T14:26:15.413Z,39.60
2019-06-15T14:28:45.490Z,40.00
2019-06-15T14:31:19.499Z,39.60
2019-06-15T14:33:55.698Z,39.20
2019-06-15T14:36:30.140Z,38.90
2019-06-15T14:39:02.430Z,38.10
2019-06-15T14:41:31.477Z,36.90
2019-06-15T14:44:01.776Z,39.00
2019-06-15T14:46:30.763Z,38.30
2019-06-15T14:48:59.837Z,38.60
2019-06-15T14:51:28.805Z,39.20
2019-06-15T14:53:59.068Z,39.20
2019-06-15T14:56:30.259Z,38.90
2019-06-15T14:59:03.496Z,38.40
2019-06-15T15:01:34.873Z,38.50
2019-06-15T15:04:03.164Z,38.10
2019-06-15T15:06:32.150Z,37.20
2019-06-15T15:09:01.052Z,37.50
2019-06-15T15:11:30.707Z,37.40
2019-06-15T15:14:00.025Z,37.20
2019-06-15T15:16:28.968Z,37.10
2019-06-15T15:18:57.904Z,36.90
2019-06-15T15:21:26.785Z,36.40
2019-06-15T15:23:57.047Z,36.90
2019-06-15T15:26:26.636Z,36.90
2019-06-15T15:28:56.574Z,36.20
2019-06-15T15:31:27.310Z,36.30
2019-06-15T15:33:56.131Z,36.20
2019-06-15T15:36:26.310Z,37.10
2019-06-15T15:38:56.141Z,36.80
2019-06-15T15:41:26.612Z,37.60
2019-06-15T15:43:55.721Z,37.40
2019-06-15T15:46:24.685Z,37.00
2019-06-15T15:48:53.539Z,37.40
2019-06-15T15:51:22.208Z,37.60
2019-06-15T15:53:51.895Z,37.20
2019-06-15T15:56:20.917Z,38.80
2019-06-15T15:58:50.990Z,38.00
2019-06-15T16:01:19.991Z,38.00
2019-06-15T16:03:51.778Z,37.90
2019-06-15T16:06:21.244Z,37.90
2019-06-15T16:08:51.030Z,37.60
2019-06-15T16:11:20.265Z,38.50
2019-06-15T16:13:49.232Z,38.00
2019-06-15T16:16:18.145Z,37.80
2019-06-15T16:18:47.202Z,37.90
2019-06-15T16:21:16.931Z,38.20
2019-06-15T16:23:49.808Z,38.20
2019-06-15T16:26:20.360Z,38.00
2019-06-15T16:28:49.001Z,38.10
2019-06-15T16:31:24.910Z,38.60
2019-06-15T16:33:48.683Z,38.60
2019-06-15T16:36:17.679Z,38.20
2019-06-15T16:38:48.139Z,38.60
2019-06-15T16:41:17.269Z,37.80
2019-06-15T16:43:46.248Z,39.00
2019-06-15T16:46:17.258Z,39.40
2019-06-15T16:48:46.853Z,39.80
2019-06-15T16:51:16.822Z,40.30
2019-06-15T16:53:47.334Z,39.90
2019-06-15T16:56:16.728Z,41.00
2019-06-15T16:58:46.824Z,40.30
2019-06-15T17:01:16.798Z,40.80
2019-06-15T17:03:47.039Z,40.60
2019-06-15T17:06:15.884Z,40.40
2019-06-15T17:08:47.757Z,40.50
2019-06-15T17:11:17.300Z,40.40
2019-06-15T17:13:47.546Z,40.50
2019-06-15T17:16:16.868Z,40.60
2019-06-15T17:18:47.061Z,40.80
2019-06-15T17:21:17.356Z,41.20
2019-06-15T17:23:46.721Z,41.40
2019-06-15T17:26:16.901Z,41.20
2019-06-15T17:28:46.176Z,41.50
2019-06-15T17:31:16.545Z,42.10
2019-06-15T17:33:46.911Z,41.60
2019-06-15T17:36:16.679Z,41.30
2019-06-15T17:38:46.235Z,41.10
2019-06-15T17:41:17.289Z,40.60
2019-06-15T17:43:47.715Z,40.40
2019-06-15T17:46:16.627Z,40.30
2019-06-15T17:48:46.766Z,39.60
2019-06-15T17:51:16.158Z,40.80
2019-06-15T17:53:47.417Z,41.80
2019-06-15T17:56:16.240Z,41.80
2019-06-15T17:58:46.334Z,41.60
2019-06-15T18:01:17.171Z,41.50
2019-06-15T18:03:53.969Z,41.20
2019-06-15T18:06:17.342Z,41.20
2019-06-15T18:08:48.762Z,41.40
2019-06-15T18:11:17.763Z,41.60
2019-06-15T18:13:47.223Z,41.60
2019-06-15T18:16:16.135Z,42.00
2019-06-15T18:18:44.926Z,42.30
2019-06-15T18:21:15.991Z,42.50
2019-06-15T18:23:46.457Z,42.80
2019-06-15T18:26:16.161Z,42.90
2019-06-15T18:28:46.876Z,43.10
2019-06-15T18:31:16.539Z,44.00
2019-06-15T18:33:47.340Z,44.20
2019-06-15T18:36:17.236Z,44.50
2019-06-15T18:38:46.638Z,45.00
2019-06-15T18:41:16.954Z,45.60
2019-06-15T18:43:46.419Z,45.90
2019-06-15T18:46:15.429Z,46.20
2019-06-15T18:48:46.863Z,47.00
2019-06-15T18:51:16.597Z,47.40
2019-06-15T18:53:46.518Z,47.80
2019-06-15T18:56:16.424Z,47.60
2019-06-15T18:58:47.697Z,48.00
2019-06-15T19:01:16.504Z,48.20
2019-06-15T19:03:46.701Z,48.20
2019-06-15T19:06:16.789Z,48.40
2019-06-15T19:08:46.837Z,48.80
2019-06-15T19:11:16.500Z,49.00
2019-06-15T19:13:47.445Z,49.60
2019-06-15T19:16:16.803Z,49.70
2019-06-15T19:18:46.220Z,50.10
2019-06-15T19:21:16.929Z,50.20
2019-06-15T19:23:47.009Z,49.70
2019-06-15T19:26:16.811Z,50.20
2019-06-15T19:28:45.952Z,50.40
2019-06-15T19:31:14.901Z,49.10
2019-06-15T19:33:43.679Z,49.90
2019-06-15T19:36:12.754Z,50.70
2019-06-15T19:38:41.390Z,50.90
2019-06-15T19:41:10.156Z,51.10
2019-06-15T19:43:39.520Z,51.20
2019-06-15T19:46:08.502Z,50.60
2019-06-15T19:48:37.232Z,50.30
2019-06-15T19:51:08.083Z,50.60
2019-06-15T19:53:36.863Z,50.60
2019-06-15T19:56:07.224Z,51.30
2019-06-15T19:58:38.946Z,51.60
2019-06-15T20:01:08.129Z,52.00
2019-06-15T20:03:37.229Z,52.40
2019-06-15T20:06:06.557Z,52.40
2019-06-15T20:08:36.194Z,52.30
2019-06-15T20:11:07.287Z,52.70
2019-06-15T20:13:37.086Z,53.20
2019-06-15T20:16:07.861Z,52.50
2019-06-15T20:18:37.450Z,53.80
2019-06-15T20:21:09.561Z,53.80
2019-06-15T20:23:38.462Z,54.20
2019-06-15T20:26:07.355Z,54.40
2019-06-15T20:28:36.562Z,54.40
2019-06-15T20:31:06.444Z,54.30
2019-06-15T20:33:37.013Z,54.70
2019-06-15T20:36:06.747Z,55.10
2019-06-15T20:38:36.410Z,55.70
2019-06-15T20:41:07.417Z,55.10
2019-06-15T20:43:36.742Z,55.00
2019-06-15T20:46:07.127Z,55.00
2019-06-15T20:48:36.517Z,54.90
2019-06-15T20:51:09.802Z,54.90
2019-06-15T20:53:36.855Z,55.10
2019-06-15T20:56:06.824Z,55.20
2019-06-15T20:58:37.274Z,55.50
2019-06-15T21:01:07.007Z,55.40
2019-06-15T21:03:36.635Z,55.50
2019-06-15T21:06:06.888Z,55.40
2019-06-15T21:08:36.321Z,55.60
2019-06-15T21:11:07.101Z,54.60
2019-06-15T21:13:37.467Z,55.80
2019-06-15T21:16:06.977Z,55.80
2019-06-15T21:18:37.469Z,56.60
2019-06-15T21:21:07.044Z,57.00
2019-06-15T21:23:37.219Z,57.00
2019-06-15T21:26:06.894Z,56.60
2019-06-15T21:28:36.975Z,56.10
2019-06-15T21:31:06.426Z,55.80
2019-06-15T21:33:36.118Z,55.60
2019-06-15T21:36:06.243Z,55.60
2019-06-15T21:38:36.194Z,55.60
2019-06-15T21:41:07.812Z,55.80
2019-06-15T21:43:36.452Z,55.90
2019-06-15T21:46:06.367Z,55.80
2019-06-15T21:48:36.494Z,56.20
2019-06-15T21:51:07.838Z,56.40
2019-06-15T21:53:36.305Z,56.40
2019-06-15T21:56:07.395Z,56.40
2019-06-15T21:58:37.400Z,56.30
2019-06-15T22:01:09.119Z,56.20
2019-06-15T22:03:38.115Z,55.90
2019-06-15T22:06:07.240Z,55.60
2019-06-15T22:08:37.020Z,55.50
2019-06-15T22:11:06.694Z,55.80
2019-06-15T22:13:37.361Z,56.40
2019-06-15T22:16:06.938Z,56.40
2019-06-15T22:18:36.544Z,56.10
2019-06-15T22:21:06.553Z,56.20
2019-06-15T22:23:36.387Z,56.20
2019-06-15T22:26:06.502Z,56.30
2019-06-15T22:28:36.332Z,56.30
2019-06-15T22:31:06.632Z,56.40
2019-06-15T22:33:36.269Z,56.60
2019-06-15T22:36:20.244Z,56.90
2019-06-15T22:38:36.827Z,56.90
2019-06-15T22:41:06.108Z,56.70
2019-06-15T22:43:36.398Z,56.60
2019-06-15T22:46:08.440Z,56.70
2019-06-15T22:48:37.348Z,57.00
2019-06-15T22:51:06.520Z,56.90
2019-06-15T22:53:36.533Z,57.30
2019-06-15T22:56:07.665Z,57.50
2019-06-15T22:58:36.255Z,57.90
2019-06-15T23:01:06.121Z,58.20
2019-06-15T23:03:35.205Z,58.70
2019-06-15T23:06:06.710Z,58.90
2019-06-15T23:08:36.551Z,59.00
2019-06-15T23:11:06.770Z,59.20
2019-06-15T23:13:38.689Z,58.20
2019-06-15T23:16:07.427Z,59.60
2019-06-15T23:18:36.259Z,59.40
2019-06-15T23:21:06.421Z,59.10
2019-06-15T23:23:36.193Z,59.00
2019-06-15T23:26:06.476Z,58.80
2019-06-15T23:28:37.943Z,58.90
2019-06-15T23:31:07.731Z,59.40
2019-06-15T23:33:36.989Z,59.80
2019-06-15T23:39:38.253Z,59.90
2019-06-15T23:42:07.029Z,61.20
2019-06-15T23:44:36.498Z,61.10
2019-06-15T23:47:05.891Z,61.00
2019-06-15T23:49:36.648Z,60.90
2019-06-15T23:52:06.791Z,60.90
2019-06-15T23:54:37.008Z,61.30
2019-06-15T23:57:06.497Z,61.50
2019-06-15T23:59:37.288Z,60.90
